Impacts TAF Board
For situational awareness. Not to be used for flight planning purposes.
IDs:

KDFW - Dallas-Ft Worth Intl, TX, US

Issued at 1459 UTC 16 Feb 2019
Updated at 1544 UTC 16 Feb 2019
Potential Impact None Slight Moderate High
Time1453Z 16/16Z 16/17Z 16/18Z 16/19Z 16/20Z 16/21Z 16/22Z 16/23Z 17/00Z 17/01Z 17/02Z 17/03Z 17/04Z>>
Type OBS PRVL
  [TEMP]  
PRVL
  [TEMP]  
PRVL PRVL PRVL PRVL PRVL PRVL PRVL PRVL PRVL PRVL PRVL
VIS 2.5 3
  [2]  
3
  [2]  
3 5 5 5 >6 >6 >6 >6 >6 >6 >6
CIG 5 6
  [4]  
6
  [4]  
6 15 15 15 35 35 35 35 35 35 35
Cover OVC OVC
  [OVC]  
OVC
  [OVC]  
OVC BKN BKN BKN BKN BKN BKN BKN BKN BKN BKN
FltCat IFR IFR
  [LIFR]  
IFR
  [LIFR]  
IFR MVFR MVFR MVFR VFR VFR VFR VFR VFR VFR VFR
WX BR -DZ
  [-DZ]  
-DZ
  [-DZ]  
-DZ BR BR BR -- -- -- -- -- -- --
WDir 10 10
[10]
10
[10]
10 90 90 90 150 150 150 150 150 150 150
WSpd 3 7
  [7]  
7
  [7]  
7 4 4 4 6 6 6 6 6 6 6
WGst -- --
  [--]  
--
  [--]  
-- -- -- -- -- -- -- -- -- -- --
Raw TAF
KDFW 161459Z 1615/1718 01007KT 3SM -DZ OVC006
  TEMPO 1615/1618 2SM -DZ OVC004
  FM161900 09004KT 5SM BR BKN015
  FM162200 15006KT P6SM SCT015 BKN035
  FM170500 18009KT 5SM BR BKN020
  TEMPO 1706/1710 3SM BR
  FM171100 31011KT P6SM SCT015 SCT300


Raw METAR
KDFW 161453Z 01003KT 2 1/2SM BR OVC005 01/M01 A2994 RMK AO2 SFC VIS 5 DZE43 SLP140 P0000 60000 T00061006 51019
KDFW 161353Z 02010KT 2SM -DZ BR OVC006 01/M01 A2992 RMK AO2 SFC VIS 3 DZB51 SLP132 P0000 T00061006
KDFW 161344Z 02011KT 2SM BR OVC006 01/M01 A2992 RMK AO2 SFC VIS 3 T00061006
KDFW 161253Z 01012KT 7SM OVC006 01/M01 A2991 RMK AO2 SLP127 T00061006

METAR Board
Radar Display
Forecast Discussion
For situational awareness. Not to be used for flight planning purposes.